Time;durP1;ratioP1;P1;durP2;ratioP2;P2;SDS_P1;SDS_P2;PMS_P1;PMS_P2;Temp;Humidity;BMP_temperature;BMP_pressure;BME280_temperature;BME280_humidity;BME280_pressure;Samples;Min_cycle;Max_cycle;Signal;HPM_P1;HPM_P2
2022/12/09 00:02:23;;;;;;;24.10;16.27;;;;;;;2.39;92.37;100610.44;5034112;28;20388;-63
2022/12/09 00:04:49;;;;;;;22.35;15.48;;;;;;;2.32;92.41;100604.13;5034495;28;20477;-63
2022/12/09 00:07:14;;;;;;;21.77;15.57;;;;;;;2.25;92.48;100599.47;5033867;28;20032;-63
2022/12/09 00:09:40;;;;;;;24.80;15.65;;;;;;;2.23;92.76;100604.63;5033961;28;20039;-63
2022/12/09 00:12:05;;;;;;;22.52;16.55;;;;;;;2.23;93.43;100607.25;5033658;28;20107;-63
2022/12/09 00:14:30;;;;;;;22.42;16.13;;;;;;;2.28;93.19;100609.16;5034022;28;20033;-63
2022/12/09 00:16:56;;;;;;;22.25;14.88;;;;;;;2.33;93.42;100605.00;5034163;28;20076;-63
2022/12/09 00:19:21;;;;;;;23.17;14.43;;;;;;;2.45;93.69;100602.88;5033918;28;20386;-63
2022/12/09 00:21:46;;;;;;;26.92;15.13;;;;;;;2.51;93.24;100604.00;5033607;28;20100;-63
2022/12/09 00:24:13;;;;;;;21.70;14.98;;;;;;;2.53;92.97;100585.81;5016112;28;20025;-63
2022/12/09 00:26:39;;;;;;;23.17;15.20;;;;;;;2.56;92.42;100585.91;5033799;28;20028;-63
2022/12/09 00:29:04;;;;;;;21.10;15.20;;;;;;;2.60;92.31;100593.03;5033804;28;20400;-63
2022/12/09 00:31:33;;;;;;;24.90;15.70;;;;;;;2.61;92.24;100597.44;5033814;28;20026;-63
2022/12/09 00:34:01;;;;;;;24.85;15.48;;;;;;;2.59;92.10;100598.19;5033737;28;20055;-64
2022/12/09 00:36:27;;;;;;;22.00;14.80;;;;;;;2.55;92.33;100607.63;5033284;28;20061;-64
2022/12/09 00:38:54;;;;;;;28.48;16.65;;;;;;;2.56;92.84;100601.56;5033672;28;20490;-64
2022/12/09 00:41:20;;;;;;;30.20;15.82;;;;;;;2.63;92.59;100595.75;5033408;28;20018;-64
2022/12/09 00:43:45;;;;;;;25.60;15.98;;;;;;;2.70;92.44;100599.50;5033476;28;20025;-64
2022/12/09 00:46:13;;;;;;;22.85;15.60;;;;;;;2.71;91.86;100599.56;5033445;28;20029;-64
2022/12/09 00:48:38;;;;;;;24.58;16.30;;;;;;;2.72;91.86;100603.06;5033397;28;20056;-64
2022/12/09 00:51:05;;;;;;;24.08;15.80;;;;;;;2.78;92.54;100605.00;5033413;28;20107;-63
2022/12/09 00:53:31;;;;;;;22.75;15.85;;;;;;;2.84;92.03;100602.63;5033001;28;20026;-63
2022/12/09 00:55:57;;;;;;;25.00;16.17;;;;;;;2.87;91.44;100601.03;5033202;28;20024;-64
2022/12/09 00:58:22;;;;;;;24.10;15.85;;;;;;;2.93;91.52;100593.41;5033060;28;20390;-64
2022/12/09 01:00:48;;;;;;;25.48;16.55;;;;;;;2.97;91.02;100597.94;5015898;28;20116;-63
2022/12/09 01:03:15;;;;;;;21.70;15.48;;;;;;;3.02;91.28;100592.88;5032899;28;20112;-63
2022/12/09 01:05:41;;;;;;;25.00;16.65;;;;;;;3.08;91.37;100595.69;5033044;28;20030;-64
2022/12/09 01:08:06;;;;;;;25.80;16.77;;;;;;;3.13;90.73;100595.91;5015326;28;20037;-63
2022/12/09 01:10:33;;;;;;;24.52;16.83;;;;;;;3.13;90.10;100593.28;5033179;28;20065;-63
2022/12/09 01:12:58;;;;;;;29.83;17.20;;;;;;;3.11;90.38;100594.94;5015302;28;20029;-64
2022/12/09 01:15:24;;;;;;;26.73;17.20;;;;;;;3.11;90.49;100602.75;5033013;28;20370;-63
2022/12/09 01:17:49;;;;;;;25.80;17.25;;;;;;;3.15;90.85;100602.94;5015291;28;20482;-64
2022/12/09 01:20:15;;;;;;;25.15;17.45;;;;;;;3.16;90.37;100598.59;5032997;28;20029;-64
2022/12/09 01:22:40;;;;;;;27.65;17.00;;;;;;;3.04;90.51;100596.44;5032061;28;20105;-63
2022/12/09 01:25:06;;;;;;;28.55;17.95;;;;;;;3.11;90.88;100605.38;5032843;28;20112;-63
2022/12/09 01:27:31;;;;;;;31.15;17.15;;;;;;;3.17;90.35;100610.81;5056767;22;20441;-71
2022/12/09 01:29:57;;;;;;;30.08;18.00;;;;;;;3.17;90.65;100605.59;5077119;22;20501;-94
2022/12/09 01:32:30;;;;;;;30.27;19.23;;;;;;;3.23;90.16;100609.31;5068038;22;20045;-67
2022/12/09 01:34:55;;;;;;;27.73;17.10;;;;;;;3.19;89.35;100609.16;5030193;28;20033;-69
2022/12/09 01:37:21;;;;;;;31.00;19.27;;;;;;;3.21;90.47;100607.47;5032851;28;20029;-69
2022/12/09 01:39:46;;;;;;;29.92;18.77;;;;;;;3.25;90.36;100604.16;5032813;28;20028;-69
2022/12/09 01:42:21;;;;;;;28.85;19.92;;;;;;;3.22;89.29;100606.66;5032794;28;20516;-69
2022/12/09 01:47:21;;;;;;;32.08;19.83;;;;;;;3.19;89.28;100612.66;5069577;28;20578;-70
2022/12/09 01:49:47;;;;;;;30.13;18.50;;;;;;;3.18;89.53;100605.66;5054970;28;20044;-70
2022/12/09 01:52:21;;;;;;;34.38;20.80;;;;;;;3.18;89.72;100605.66;5085287;22;20420;-72
2022/12/09 01:55:15;;;;;;;35.92;20.42;;;;;;;3.24;90.24;100615.44;5031101;28;20041;-70
2022/12/09 01:57:43;;;;;;;36.22;20.63;;;;;;;3.22;89.67;100618.00;5051066;22;20063;-93
2022/12/09 02:00:11;;;;;;;34.00;20.58;;;;;;;3.15;89.52;100600.31;5016487;28;20050;-86
2022/12/09 02:02:40;;;;;;;32.80;20.33;;;;;;;3.17;89.72;100608.19;5015347;28;20036;-86
2022/12/09 02:05:06;;;;;;;36.47;20.67;;;;;;;3.20;90.38;100606.59;5090992;22;20062;-72
2022/12/09 02:07:32;;;;;;;36.38;20.90;;;;;;;3.20;90.07;100603.97;5052303;28;20052;-69
2022/12/09 02:13:00;;;;;;;34.50;21.00;;;;;;;3.15;90.04;100615.09;5074597;22;20567;-68
2022/12/09 02:16:07;;;;;;;37.40;21.27;;;;;;;3.17;90.14;100613.41;5075351;22;20075;-63
2022/12/09 02:18:39;;;;;;;36.28;20.33;;;;;;;3.19;90.48;100609.16;5088237;22;20140;-90
2022/12/09 02:21:13;;;;;;;48.50;24.27;;;;;;;3.10;89.66;100601.88;5053229;28;20129;-87
2022/12/09 02:26:56;;;;;;;39.00;23.02;;;;;;;3.10;90.12;100608.81;5096838;22;20053;-64
2022/12/09 02:29:43;;;;;;;43.03;22.50;;;;;;;3.12;90.41;100607.16;5007891;28;20551;-64
2022/12/09 02:32:38;;;;;;;38.55;22.17;;;;;;;3.11;90.20;100608.88;5052264;28;20100;-63
2022/12/09 02:35:10;;;;;;;40.53;22.00;;;;;;;3.12;90.14;100609.75;5037493;28;20021;-63
2022/12/09 02:37:53;;;;;;;45.08;23.30;;;;;;;3.16;90.35;100609.03;5055949;28;20052;-64
2022/12/09 02:40:23;;;;;;;41.88;22.35;;;;;;;3.20;90.59;100611.81;5037922;28;20551;-64
2022/12/09 02:42:49;;;;;;;41.08;21.98;;;;;;;3.24;90.62;100610.22;5037819;28;20025;-63
2022/12/09 02:45:17;;;;;;;40.30;22.15;;;;;;;3.28;90.62;100606.00;5055975;28;20044;-64
2022/12/09 02:47:48;;;;;;;39.42;22.88;;;;;;;3.35;90.67;100602.78;5055630;28;20086;-64
2022/12/09 02:50:18;;;;;;;45.13;22.65;;;;;;;3.39;89.71;100604.66;5055667;28;20107;-63
2022/12/09 02:52:45;;;;;;;43.35;22.88;;;;;;;3.43;89.80;100599.59;5055190;28;20040;-63
2022/12/09 02:55:14;;;;;;;49.58;24.42;;;;;;;3.44;90.23;100595.25;5055518;28;20025;-66
2022/12/09 02:57:39;;;;;;;45.20;23.98;;;;;;;3.47;89.48;100595.38;5055191;28;20520;-63
2022/12/09 03:00:06;;;;;;;47.33;24.58;;;;;;;3.43;89.70;100589.16;5055072;28;20044;-64
2022/12/09 03:02:39;;;;;;;47.35;23.98;;;;;;;3.46;90.18;100594.47;5054773;28;20071;-63
2022/12/09 03:05:24;;;;;;;47.25;24.63;;;;;;;3.51;90.37;100597.22;5054913;28;20021;-64
2022/12/09 03:08:25;;;;;;;54.97;25.20;;;;;;;3.59;89.70;100595.78;5054887;28;20029;-63
2022/12/09 03:10:52;;;;;;;48.80;24.88;;;;;;;3.61;90.09;100595.84;4974155;28;20030;-63
2022/12/09 03:13:31;;;;;;;50.50;23.80;;;;;;;3.56;89.67;100592.19;5039229;28;20037;-63
2022/12/09 03:16:19;;;;;;;48.03;24.63;;;;;;;3.57;89.81;100597.47;5054706;28;20065;-63
2022/12/09 03:18:51;;;;;;;51.85;25.08;;;;;;;3.59;90.02;100590.56;5054606;28;20330;-63
2022/12/09 03:21:20;;;;;;;47.67;25.02;;;;;;;3.57;89.70;100586.13;5054484;28;20059;-63
2022/12/09 03:23:50;;;;;;;52.08;25.67;;;;;;;3.62;90.28;100580.22;5054317;28;20116;-63
2022/12/09 03:26:17;;;;;;;49.05;24.25;;;;;;;3.66;90.03;100581.22;5054411;28;20048;-63
2022/12/09 03:28:48;;;;;;;52.88;25.05;;;;;;;3.71;89.08;100577.03;5054767;28;20033;-64
2022/12/09 03:31:18;;;;;;;49.75;25.50;;;;;;;3.73;89.89;100573.66;5054598;28;20462;-64
2022/12/09 03:33:49;;;;;;;53.65;25.55;;;;;;;3.75;88.73;100571.06;5054449;28;20029;-63
2022/12/09 03:36:16;;;;;;;53.97;26.77;;;;;;;3.75;89.17;100571.06;5054659;28;20025;-62
2022/12/09 03:38:45;;;;;;;55.05;25.55;;;;;;;3.78;89.60;100568.56;5054467;28;20179;-63
2022/12/09 03:41:28;;;;;;;58.28;25.85;;;;;;;3.74;89.40;100567.56;5054274;28;20496;-63
2022/12/09 03:43:56;;;;;;;;;;;;;;;3.74;88.41;100571.91;5054858;28;20036;-63
2022/12/09 03:46:22;;;;;;;48.70;23.55;;;;;;;3.64;89.25;100567.19;5053806;28;20091;-64
2022/12/09 03:48:48;;;;;;;45.83;23.20;;;;;;;3.61;89.55;100567.13;5054332;28;20014;-63
2022/12/09 03:51:35;;;;;;;39.72;23.27;;;;;;;3.59;89.09;100564.44;5054323;28;20025;-64
2022/12/09 03:54:05;;;;;;;39.10;22.52;;;;;;;3.51;89.57;100564.19;5054091;28;20086;-63
2022/12/09 03:56:43;;;;;;;40.05;22.90;;;;;;;3.45;89.28;100561.34;5036349;28;20039;-63
2022/12/09 03:59:11;;;;;;;36.38;21.98;;;;;;;3.38;88.70;100566.31;5054373;28;20478;-64
2022/12/09 04:01:40;;;;;;;36.25;21.52;;;;;;;3.31;89.75;100564.34;5054067;28;20021;-63
2022/12/09 04:04:07;;;;;;;38.67;22.48;;;;;;;3.28;90.27;100564.22;5036239;28;20024;-63
2022/12/09 04:06:32;;;;;;;38.42;22.55;;;;;;;3.25;89.49;100567.59;5054073;28;20441;-63
2022/12/09 04:08:58;;;;;;;42.67;21.23;;;;;;;3.23;89.67;100566.66;5054181;28;20041;-63
2022/12/09 04:11:23;;;;;;;40.70;22.65;;;;;;;3.23;90.17;100569.28;5053988;28;20036;-63
2022/12/09 04:13:48;;;;;;;36.15;21.90;;;;;;;3.26;90.14;100562.44;5054068;28;20119;-63
2022/12/09 04:16:14;;;;;;;43.47;21.83;;;;;;;3.30;90.10;100566.06;5035855;28;20159;-65
2022/12/09 04:18:39;;;;;;;41.13;21.58;;;;;;;3.34;90.26;100559.19;5054062;28;20028;-63
2022/12/09 04:21:10;;;;;;;38.55;22.55;;;;;;;3.36;89.87;100554.94;5053869;28;20029;-63
2022/12/09 04:23:36;;;;;;;40.15;21.83;;;;;;;3.36;89.61;100560.16;5053560;28;20025;-63
2022/12/09 04:26:03;;;;;;;37.22;22.17;;;;;;;3.32;89.53;100561.75;5053487;28;20027;-63
2022/12/09 04:28:28;;;;;;;40.05;22.02;;;;;;;3.33;89.78;100568.75;5052894;28;20470;-62
2022/12/09 04:30:54;;;;;;;38.97;21.30;;;;;;;3.36;89.58;100557.53;5052752;28;20029;-62
2022/12/09 04:33:19;;;;;;;38.75;21.95;;;;;;;3.41;89.80;100559.47;5052787;28;20029;-63
2022/12/09 04:35:44;;;;;;;40.22;21.98;;;;;;;3.40;88.57;100560.31;5052783;28;20031;-63
2022/12/09 04:38:10;;;;;;;41.13;21.25;;;;;;;3.36;89.08;100555.81;5052722;28;20044;-63
2022/12/09 04:40:36;;;;;;;43.35;21.73;;;;;;;3.40;89.84;100560.31;5052684;28;20025;-63
2022/12/09 04:43:02;;;;;;;37.53;20.77;;;;;;;3.37;88.84;100561.91;5034636;28;20028;-63
2022/12/09 04:45:27;;;;;;;41.10;21.35;;;;;;;3.34;88.87;100554.88;5052754;28;20052;-63
2022/12/09 04:47:53;;;;;;;44.25;22.17;;;;;;;3.36;89.37;100557.53;5052508;28;20029;-63
2022/12/09 04:50:18;;;;;;;41.22;22.35;;;;;;;3.38;88.82;100548.03;5052378;28;20557;-63
2022/12/09 04:52:43;;;;;;;34.05;19.83;;;;;;;3.42;88.83;100548.19;5052420;28;20437;-62
2022/12/09 04:55:11;;;;;;;44.35;20.90;;;;;;;3.41;88.41;100554.25;5052398;28;20033;-63
2022/12/09 04:57:37;;;;;;;43.08;22.52;;;;;;;3.39;87.84;100557.66;5052151;28;20478;-63
2022/12/09 05:00:04;;;;;;;41.28;21.77;;;;;;;3.42;88.49;100558.63;5052229;28;20040;-63
2022/12/09 05:02:29;;;;;;;38.35;22.30;;;;;;;3.45;89.16;100563.06;5052167;28;20025;-63
2022/12/09 05:04:55;;;;;;;38.35;21.42;;;;;;;3.49;88.52;100557.13;5034544;28;20434;-63
2022/12/09 05:07:22;;;;;;;39.85;21.17;;;;;;;3.53;88.80;100558.13;5051881;28;20108;-63
2022/12/09 05:09:47;;;;;;;40.30;21.67;;;;;;;3.56;87.85;100556.50;5052252;28;20522;-64
2022/12/09 05:12:13;;;;;;;35.95;21.27;;;;;;;3.57;87.45;100555.66;5052296;28;20111;-63
2022/12/09 05:14:38;;;;;;;35.45;21.38;;;;;;;3.56;87.93;100556.50;5052233;28;20021;-63
2022/12/09 05:17:05;;;;;;;39.50;21.88;;;;;;;3.56;87.05;100559.13;5052087;28;20025;-63
2022/12/09 05:19:31;;;;;;;41.72;21.52;;;;;;;3.54;86.96;100565.13;5051972;28;20037;-63
2022/12/09 05:21:56;;;;;;;34.20;21.17;;;;;;;3.48;86.84;100557.97;5033887;28;20033;-62
2022/12/09 05:24:21;;;;;;;39.35;21.60;;;;;;;3.48;87.93;100556.25;5052077;28;20017;-63
2022/12/09 05:26:47;;;;;;;39.03;21.70;;;;;;;3.45;87.30;100552.63;5013671;28;1113018;-62
2022/12/09 05:29:12;;;;;;;40.03;21.92;;;;;;;3.42;87.74;100555.13;5034717;28;20612;-63
2022/12/09 05:31:37;;;;;;;38.10;21.20;;;;;;;3.40;88.11;100557.69;5034812;28;20082;-62
2022/12/09 05:34:03;;;;;;;40.13;20.38;;;;;;;3.42;87.93;100556.00;5052699;28;20087;-62
2022/12/09 05:36:28;;;;;;;37.28;21.48;;;;;;;3.47;87.65;100558.81;5052705;28;20112;-62
2022/12/09 05:38:54;;;;;;;38.17;21.38;;;;;;;3.46;88.02;100550.06;5052656;28;20029;-63
2022/12/09 05:41:21;;;;;;;40.75;21.88;;;;;;;3.48;87.25;100550.13;5052412;28;20359;-63
2022/12/09 05:43:47;;;;;;;38.45;21.52;;;;;;;3.50;87.11;100556.28;5052441;28;20458;-63
2022/12/09 05:46:13;;;;;;;41.80;21.55;;;;;;;3.53;87.11;100566.84;5052554;28;20049;-63
2022/12/09 05:48:38;;;;;;;39.90;21.58;;;;;;;3.57;87.55;100558.28;5052730;28;20029;-63
2022/12/09 05:51:07;;;;;;;35.97;21.73;;;;;;;3.59;86.79;100556.59;5052251;28;20377;-63
2022/12/09 05:53:32;;;;;;;37.13;21.00;;;;;;;3.63;86.61;100557.59;5052237;28;20420;-62
2022/12/09 05:55:58;;;;;;;38.45;21.70;;;;;;;3.66;87.56;100560.31;5034673;28;20496;-63
2022/12/09 05:58:23;;;;;;;39.67;21.90;;;;;;;3.66;87.00;100553.38;5052527;28;20060;-63
2022/12/09 06:00:49;;;;;;;40.30;21.63;;;;;;;3.67;86.51;100546.41;5052457;28;20496;-67
2022/12/09 06:03:15;;;;;;;38.42;21.30;;;;;;;3.71;86.35;100556.13;5052628;28;20071;-63
2022/12/09 06:05:41;;;;;;;42.10;22.15;;;;;;;3.70;86.21;100547.41;5052471;28;20037;-63
2022/12/09 06:08:07;;;;;;;39.03;22.45;;;;;;;3.69;86.56;100550.88;5052571;28;20036;-62
2022/12/09 06:10:33;;;;;;;36.38;20.90;;;;;;;3.64;86.79;100546.28;5056346;28;20018;-62
2022/12/09 06:12:58;;;;;;;36.20;21.05;;;;;;;3.62;86.47;100546.25;5038375;28;20067;-62
2022/12/09 06:15:24;;;;;;;41.25;22.00;;;;;;;3.62;87.25;100545.38;5056445;28;20025;-63
2022/12/09 06:17:50;;;;;;;38.75;21.58;;;;;;;3.67;87.12;100549.03;5056252;28;20444;-63
2022/12/09 06:20:16;;;;;;;40.67;22.85;;;;;;;3.67;86.01;100547.28;5038336;28;20025;-63
2022/12/09 06:22:42;;;;;;;37.97;21.58;;;;;;;3.67;86.75;100546.41;5055793;28;20035;-63
2022/12/09 06:25:08;;;;;;;39.30;21.02;;;;;;;3.65;85.94;100543.75;5056022;28;20020;-63
2022/12/09 06:27:33;;;;;;;44.50;20.98;;;;;;;3.61;86.67;100556.66;5055752;28;20049;-62
2022/12/09 06:29:58;;;;;;;39.08;20.63;;;;;;;3.57;86.18;100542.59;5056037;28;20033;-62
2022/12/09 06:32:24;;;;;;;35.50;21.05;;;;;;;3.51;86.06;100552.81;5055877;28;20029;-62
2022/12/09 06:34:49;;;;;;;34.13;21.13;;;;;;;3.50;86.63;100553.66;5056266;28;20100;-63
2022/12/09 06:37:15;;;;;;;36.55;21.20;;;;;;;3.48;86.73;100555.34;5037856;28;20044;-63
2022/12/09 06:39:41;;;;;;;52.08;30.80;;;;;;;3.44;87.10;100551.75;5055734;28;20230;-63
2022/12/09 06:42:06;;;;;;;42.72;21.33;;;;;;;3.44;86.36;100558.69;5055458;28;20074;-62
2022/12/09 06:44:32;;;;;;;37.05;21.27;;;;;;;3.41;87.21;100559.47;5055496;28;20021;-64
2022/12/09 06:46:58;;;;;;;35.70;21.88;;;;;;;3.39;86.46;100561.16;5055579;28;20029;-62
2022/12/09 06:49:23;;;;;;;35.97;20.80;;;;;;;3.37;87.04;100554.97;5055646;28;20147;-63
2022/12/09 06:51:48;;;;;;;44.78;24.35;;;;;;;3.36;86.13;100557.53;5055450;28;20028;-63
2022/12/09 06:54:14;;;;;;;41.88;21.80;;;;;;;3.32;86.34;100555.66;5055453;28;20031;-62
2022/12/09 06:56:39;;;;;;;38.42;22.33;;;;;;;3.28;87.23;100553.78;5037453;28;20059;-63
2022/12/09 06:59:06;;;;;;;37.72;21.85;;;;;;;3.24;87.30;100552.75;5055252;28;20051;-63
2022/12/09 07:01:32;;;;;;;40.50;21.77;;;;;;;3.18;87.01;100561.28;5054857;28;20447;-62
2022/12/09 07:03:57;;;;;;;42.47;22.25;;;;;;;3.15;88.11;100555.06;5055079;28;20053;-63
2022/12/09 07:06:41;;;;;;;40.55;22.27;;;;;;;3.17;88.25;100559.50;5054935;28;20436;-63
2022/12/09 07:09:08;;;;;;;44.78;22.95;;;;;;;3.15;87.53;100565.50;5055289;28;20036;-62
2022/12/09 07:11:34;;;;;;;42.13;21.50;;;;;;;3.16;87.67;100564.66;5054946;28;20104;-62
2022/12/09 07:14:00;;;;;;;39.20;22.48;;;;;;;3.15;86.97;100558.56;5054744;28;20492;-62
2022/12/09 07:16:26;;;;;;;37.92;21.98;;;;;;;3.13;87.03;100570.69;5055053;28;20025;-62
2022/12/09 07:18:51;;;;;;;44.97;22.63;;;;;;;3.12;87.29;100566.25;5054990;28;20037;-62
2022/12/09 07:21:19;;;;;;;40.58;23.00;;;;;;;3.12;87.73;100576.69;5053620;28;20111;-62
2022/12/09 07:23:45;;;;;;;42.90;22.92;;;;;;;3.10;87.29;100565.34;5054371;28;20018;-63
2022/12/09 07:26:11;;;;;;;38.42;21.73;;;;;;;3.14;86.82;100566.34;5054319;28;20030;-63
2022/12/09 07:28:38;;;;;;;43.08;22.67;;;;;;;3.11;87.38;100574.94;5054707;28;20094;-63
2022/12/09 07:31:05;;;;;;;40.42;21.90;;;;;;;3.11;87.00;100581.88;5054771;28;20039;-62
2022/12/09 07:33:31;;;;;;;36.88;21.45;;;;;;;3.07;86.70;100580.00;5054692;28;20491;-63
2022/12/09 07:35:57;;;;;;;42.03;23.17;;;;;;;3.02;86.95;100582.44;5036843;28;20025;-63
2022/12/09 07:38:24;;;;;;;43.15;22.20;;;;;;;2.98;87.01;100581.44;5054783;28;20025;-63
2022/12/09 07:40:50;;;;;;;38.40;21.90;;;;;;;2.99;86.88;100579.69;5054919;28;20371;-63
2022/12/09 07:43:16;;;;;;;42.55;22.27;;;;;;;3.02;87.48;100579.81;5054843;28;20136;-62
2022/12/09 07:45:41;;;;;;;42.83;22.27;;;;;;;3.06;87.55;100584.31;5054582;28;20475;-62
2022/12/09 07:48:07;;;;;;;47.53;25.60;;;;;;;3.05;86.68;100587.78;5054469;28;20494;-62
2022/12/09 07:50:34;;;;;;;42.45;22.13;;;;;;;3.00;86.99;100589.34;5036542;28;20409;-62
2022/12/09 07:53:00;;;;;;;42.50;22.58;;;;;;;2.97;86.98;100592.72;5054163;28;20516;-62
2022/12/09 07:55:25;;;;;;;39.13;22.17;;;;;;;3.00;86.59;100592.81;5036345;28;20029;-63
2022/12/09 07:57:51;;;;;;;40.50;22.08;;;;;;;3.03;87.32;100596.38;5054352;28;20086;-62
2022/12/09 08:00:17;;;;;;;37.35;21.63;;;;;;;3.01;86.97;100589.38;5036405;28;20025;-62
2022/12/09 08:02:42;;;;;;;40.30;21.45;;;;;;;3.02;86.87;100598.09;5054094;28;20145;-62
2022/12/09 08:05:08;;;;;;;38.25;21.30;;;;;;;3.05;86.81;100592.13;5054133;28;20028;-63
2022/12/09 08:07:33;;;;;;;43.05;22.08;;;;;;;3.04;86.99;100588.63;5054060;28;20087;-63
2022/12/09 08:09:58;;;;;;;40.47;21.90;;;;;;;3.06;86.22;100597.38;5054063;28;20033;-62
2022/12/09 08:12:24;;;;;;;40.75;21.77;;;;;;;3.04;86.71;100585.09;5036586;28;20033;-62
2022/12/09 08:14:49;;;;;;;36.58;21.05;;;;;;;3.03;87.26;100592.03;5053959;28;20028;-62
2022/12/09 08:17:15;;;;;;;36.72;20.80;;;;;;;3.07;87.07;100595.66;5053956;28;20116;-62
2022/12/09 08:19:41;;;;;;;41.67;22.02;;;;;;;3.10;86.96;100591.44;5036475;28;20029;-62
2022/12/09 08:22:06;;;;;;;38.65;21.27;;;;;;;3.09;86.26;100594.00;5035663;28;20064;-62
2022/12/09 08:24:32;;;;;;;40.78;22.63;;;;;;;3.10;86.73;100591.44;5053916;28;20025;-62
2022/12/09 08:26:58;;;;;;;41.83;22.63;;;;;;;3.13;87.00;100602.00;5053636;28;20450;-63
2022/12/09 08:29:24;;;;;;;39.55;21.33;;;;;;;3.11;86.79;100588.00;5053673;28;20432;-63
2022/12/09 08:31:49;;;;;;;40.78;22.60;;;;;;;3.14;86.75;100601.16;5053286;28;20029;-62
2022/12/09 08:34:15;;;;;;;42.03;22.50;;;;;;;3.15;86.60;100602.94;5053680;28;20053;-63
2022/12/09 08:36:41;;;;;;;38.25;22.10;;;;;;;3.18;85.87;100603.06;5053669;28;20071;-62
2022/12/09 08:39:07;;;;;;;37.85;22.05;;;;;;;3.19;87.01;100598.72;5053590;28;20029;-62
2022/12/09 08:41:34;;;;;;;38.97;21.42;;;;;;;3.18;86.43;100590.00;5053607;28;20048;-63
2022/12/09 08:44:07;;;;;;;41.58;21.30;;;;;;;3.18;87.01;100589.13;5035494;28;20028;-62
2022/12/09 08:46:33;;;;;;;44.45;22.60;;;;;;;3.18;86.36;100591.72;5053366;28;20098;-62
2022/12/09 08:49:02;;;;;;;43.47;22.92;;;;;;;3.21;87.13;100589.19;5053592;28;20063;-63
2022/12/09 08:51:29;;;;;;;43.03;23.58;;;;;;;3.21;86.29;100583.97;5035936;28;20489;-64
2022/12/09 08:53:56;;;;;;;42.42;23.25;;;;;;;3.19;86.02;100583.06;5052858;28;20070;-63
2022/12/09 08:56:21;;;;;;;41.22;22.42;;;;;;;3.22;86.60;100586.66;5053233;28;20033;-62
2022/12/09 08:58:47;;;;;;;42.05;23.52;;;;;;;3.28;86.90;100590.31;5053286;28;20029;-63
2022/12/09 09:01:25;;;;;;;44.20;23.48;;;;;;;3.31;86.08;100590.44;5053078;28;20025;-63
2022/12/09 09:03:51;;;;;;;43.00;23.33;;;;;;;3.30;86.27;100593.88;5034604;28;20134;-63
2022/12/09 09:06:17;;;;;;;45.88;23.95;;;;;;;3.43;87.59;100589.16;5053085;28;20132;-62
2022/12/09 09:08:43;;;;;;;45.58;22.92;;;;;;;3.62;87.33;100595.00;5052983;28;20044;-63
2022/12/09 09:11:18;;;;;;;46.30;23.13;;;;;;;3.69;85.85;100594.41;5035133;28;20466;-62
2022/12/09 09:13:46;;;;;;;43.08;22.63;;;;;;;3.72;85.62;100597.09;5053005;28;20036;-62
2022/12/09 09:16:18;;;;;;;46.10;24.42;;;;;;;3.72;84.64;100602.31;5034970;28;20033;-61
2022/12/09 09:18:43;;;;;;;48.38;24.85;;;;;;;3.69;85.32;100607.47;5053193;28;20025;-63
2022/12/09 09:21:10;;;;;;;46.13;24.88;;;;;;;3.60;84.08;100613.25;5052836;28;20367;-62
2022/12/09 09:23:36;;;;;;;49.90;24.45;;;;;;;3.48;84.44;100605.88;5052637;28;20029;-62
2022/12/09 09:26:02;;;;;;;50.30;25.40;;;;;;;3.41;84.40;100613.44;5052707;28;20044;-63
2022/12/09 09:28:28;;;;;;;48.13;24.15;;;;;;;3.37;85.13;100612.41;5052776;28;20488;-63
2022/12/09 09:31:01;;;;;;;45.13;23.15;;;;;;;3.29;85.03;100613.88;5053060;28;20075;-63
2022/12/09 09:33:28;;;;;;;47.95;21.98;;;;;;;3.28;84.95;100611.22;5052846;28;20025;-62
2022/12/09 09:35:58;;;;;;;41.35;22.10;;;;;;;3.33;84.89;100609.66;5052705;28;20078;-63
2022/12/09 09:38:24;;;;;;;40.15;21.98;;;;;;;3.64;86.35;100612.53;5052695;28;20029;-63
2022/12/09 09:40:51;;;;;;;44.05;22.95;;;;;;;4.12;85.11;100614.13;5035185;28;20021;-62
2022/12/09 09:43:21;;;;;;;40.20;23.17;;;;;;;4.52;84.85;100606.72;5053311;28;20033;-62
2022/12/09 09:45:47;;;;;;;44.00;22.40;;;;;;;4.95;82.44;100609.75;5057082;28;20025;-63
2022/12/09 09:48:17;;;;;;;43.45;22.83;;;;;;;5.16;82.12;100594.66;5038823;28;20497;-63
2022/12/09 09:51:03;;;;;;;43.28;23.75;;;;;;;5.34;81.26;100604.75;5056778;28;20029;-63
2022/12/09 09:53:31;;;;;;;39.78;21.90;;;;;;;5.62;80.96;100600.28;5056612;28;20412;-63
2022/12/09 09:56:02;;;;;;;39.97;23.02;;;;;;;5.91;81.24;100601.94;5056779;28;20028;-62
2022/12/09 09:58:44;;;;;;;37.35;20.83;;;;;;;6.21;78.57;100591.34;5056710;28;20025;-62
2022/12/09 10:01:13;;;;;;;35.85;20.08;;;;;;;6.45;76.06;100596.28;5056632;28;20395;-63
2022/12/09 10:03:47;;;;;;;36.50;18.83;;;;;;;6.56;75.34;100595.66;5056401;28;20025;-63
2022/12/09 10:06:34;;;;;;;35.65;20.08;;;;;;;6.68;75.53;100581.06;5056577;28;20052;-63
2022/12/09 10:09:21;;;;;;;36.78;20.92;;;;;;;6.79;74.54;100591.78;5056530;28;20115;-63
2022/12/09 10:11:49;;;;;;;37.60;21.85;;;;;;;6.66;73.79;100587.13;5056433;28;20032;-63
2022/12/09 10:14:27;;;;;;;37.78;21.67;;;;;;;6.71;74.31;100596.88;5056335;28;20131;-62
2022/12/09 10:16:58;;;;;;;36.42;20.95;;;;;;;6.52;72.34;100594.69;5056278;28;20033;-62
2022/12/09 10:19:53;;;;;;;37.58;20.23;;;;;;;6.32;74.57;100595.97;5056272;28;20027;-63
2022/12/09 10:22:22;;;;;;;32.60;18.95;;;;;;;6.09;73.54;100592.78;5053710;28;20509;-63
2022/12/09 10:24:51;;;;;;;38.53;21.73;;;;;;;5.94;73.64;100595.91;5056033;28;20028;-62
2022/12/09 10:27:29;;;;;;;36.78;20.38;;;;;;;5.83;73.88;100598.22;5055815;28;20071;-63
2022/12/09 10:30:00;;;;;;;38.85;20.50;;;;;;;5.57;74.03;100592.31;5056098;28;20045;-63
2022/12/09 10:32:29;;;;;;;41.53;20.85;;;;;;;5.31;75.32;100588.97;5054758;28;20064;-63
2022/12/09 10:34:55;;;;;;;42.92;21.73;;;;;;;5.34;75.74;100596.91;5054359;28;20360;-63
2022/12/09 10:37:24;;;;;;;36.70;19.70;;;;;;;5.29;74.36;100601.13;5054750;28;20477;-62
2022/12/09 10:40:09;;;;;;;34.78;18.67;;;;;;;5.11;73.45;100596.25;5054914;28;20033;-62
2022/12/09 10:45:32;;;;;;;40.10;20.42;;;;;;;4.96;74.84;100601.91;5055633;28;20071;-63
2022/12/09 10:47:58;;;;;;;38.50;20.23;;;;;;;4.92;75.15;100591.31;5055646;28;20056;-63
2022/12/09 10:50:34;;;;;;;40.25;20.30;;;;;;;5.02;75.31;100596.00;5055665;28;20018;-63
2022/12/09 10:53:10;;;;;;;41.03;20.17;;;;;;;5.23;74.69;100588.75;5055732;28;20025;-64
2022/12/09 10:55:39;;;;;;;39.85;19.98;;;;;;;5.42;75.16;100586.63;5037582;28;20135;-63
2022/12/09 10:58:17;;;;;;;36.17;19.02;;;;;;;5.39;73.09;100594.41;5055406;28;20078;-64
2022/12/09 11:00:55;;;;;;;36.13;19.75;;;;;;;5.36;73.49;100581.25;5055352;28;20044;-62
2022/12/09 11:03:25;;;;;;;34.22;18.30;;;;;;;5.28;73.08;100588.88;5055420;28;20029;-63
2022/12/09 11:05:56;;;;;;;35.17;18.67;;;;;;;5.15;74.72;100582.41;5055327;28;20033;-63
2022/12/09 11:08:22;;;;;;;36.90;18.95;;;;;;;5.13;74.84;100577.97;5055286;28;20029;-62
2022/12/09 11:10:49;;;;;;;36.05;18.77;;;;;;;5.03;74.97;100580.31;5055156;28;20028;-62
2022/12/09 11:13:18;;;;;;;34.55;17.63;;;;;;;4.94;74.11;100579.19;5037164;28;20040;-62
2022/12/09 11:15:48;;;;;;;34.70;18.77;;;;;;;4.86;74.18;100591.16;5055169;28;20029;-62
2022/12/09 11:18:39;;;;;;;31.33;17.67;;;;;;;4.77;74.87;100582.19;5055082;28;20036;-63
2022/12/09 11:21:07;;;;;;;34.42;17.52;;;;;;;4.74;75.21;100576.84;5055056;28;20028;-62
2022/12/09 11:23:34;;;;;;;37.88;17.85;;;;;;;4.77;75.30;100574.31;5054733;28;20359;-63
2022/12/09 11:26:03;;;;;;;37.22;18.17;;;;;;;4.77;75.50;100578.69;5055289;28;20059;-63
2022/12/09 11:28:34;;;;;;;31.00;16.83;;;;;;;4.73;74.90;100571.56;5054890;28;20045;-62
2022/12/09 11:31:08;;;;;;;33.13;17.27;;;;;;;4.75;74.21;100577.72;5054904;28;20024;-61
2022/12/09 11:33:37;;;;;;;32.35;17.52;;;;;;;4.75;75.16;100575.09;5054895;28;20083;-62
2022/12/09 11:36:08;;;;;;;34.72;18.10;;;;;;;4.67;74.21;100574.91;5054803;28;20021;-62